Almirante Gago Coutinho — CTHA — position and weather

sailwx.info

Track history (hours):
 
Tides and Currents Weather Stations Pressure Air Temp Water Temp Dewpoint Dewpoint Depression Visibility Wind Speed Wind Dir Waves Ship Positions

Oceanographic research ship Almirante Gago Coutinho (Portugal)

Detailed information on ship capabilities available from University of Delaware's Ocean Information Center.

Last reported at 2019-Sep-18 11:30 UTC. Time now 2019-Sep-18 11:55 UTC.
Position N 38°23' W 009°01'.

Length 69 m; draft 5 m.

Type: Military. MMSI: 263145000.

Date/timePositionNaut miles runAvg speedWind from/ knotsBaromVisibWave heightAir tempDewpointWater temp
2019-Sep-18 11:30N 38°23' W 009°01'2 4.2
2019-Sep-18 11:01N 38°24' W 009°03'2 3.9
2019-Sep-18 10:30N 38°25' W 009°05'1 2.1
2019-Sep-18 10:00N 38°26' W 009°06'0 0.2
2019-Sep-18 09:31N 38°26' W 009°06'0 0.1
2019-Sep-18 09:00N 38°26' W 009°06'1 2.5
2019-Sep-18 08:31N 38°25' W 009°05'0 0.8
2019-Sep-18 08:00N 38°25' W 009°04'1 2.6
2019-Sep-18 07:30N 38°24' W 009°03'2 3.7
2019-Sep-18 07:00N 38°24' W 009°00'0 0.5
2019-Sep-18 06:30N 38°24' W 009°01'0 0.2
2019-Sep-18 06:00N 38°24' W 009°00'0 0.5
2019-Sep-18 05:30N 38°24' W 009°00'0 0.5
2019-Sep-18 05:00N 38°24' W 009°00'0 0.5
2019-Sep-18 04:30N 38°24' W 009°00'0 0.2
2019-Sep-18 04:00N 38°23' W 009°00'1 1.6
2019-Sep-18 03:30N 38°24' W 009°00'1 1.1
2019-Sep-18 03:00N 38°25' W 009°00'0 0.3
2019-Sep-18 02:30N 38°25' W 009°00'1 2.3
2019-Sep-18 02:00N 38°24' W 009°00'1 2.9
2019-Sep-18 01:30N 38°22' W 009°00'0 0.4
2019-Sep-18 01:00N 38°22' W 009°00'0 0.4
2019-Sep-18 00:30N 38°22' W 009°00'0 0.3
2019-Sep-18 00:00N 38°23' W 009°00'1 1.0
2019-Sep-17 23:30N 38°22' W 009°00'2 3.1
2019-Sep-17 23:00N 38°21' W 009°00'3 5.4
2019-Sep-17 22:30N 38°23' W 009°00'0 0.8
2019-Sep-17 22:00N 38°24' W 009°01'0 0.2
2019-Sep-17 21:30N 38°24' W 009°00'1 1.6
2019-Sep-17 21:00N 38°23' W 008°60'0 0.2
2019-Sep-17 20:30N 38°23' W 008°60'0 0.7
2019-Sep-17 20:00N 38°23' W 009°00'1 2.3
2019-Sep-17 19:30N 38°22' W 008°60'1 2.9
2019-Sep-17 19:00N 38°21' W 009°00'2 3.6
2019-Sep-17 18:30N 38°20' W 009°03'0 0.9
2019-Sep-17 18:00N 38°20' W 009°03'0 0.5
2019-Sep-17 17:30N 38°20' W 009°03'0 0.6
2019-Sep-17 17:00N 38°20' W 009°04'0 0.6
2019-Sep-17 16:30N 38°20' W 009°04'0 0.7
2019-Sep-17 16:00N 38°20' W 009°05'1 1.1
2019-Sep-17 15:30N 38°20' W 009°04'2 3.7
2019-Sep-17 15:00N 38°22' W 009°03'1 2.4
2019-Sep-17 14:30N 38°23' W 009°02'1 1.7
2019-Sep-17 14:00N 38°23' W 009°01'0 0.5
2019-Sep-17 13:30N 38°23' W 009°01'1 1.1
2019-Sep-17 13:00N 38°23' W 009°02'0 0.2
2019-Sep-17 12:30N 38°23' W 009°02'0 0.4
2019-Sep-17 12:00N 38°23' W 009°02'1 2.5
2019-Sep-17 11:30N 38°24' W 009°02'2 4.2
2019-Sep-17 11:00N 38°22' W 009°01'1 2.7
2019-Sep-17 10:30N 38°24' W 009°02'0 0.2
2019-Sep-17 10:00N 38°23' W 009°02'1 1.6
2019-Sep-17 09:30N 38°23' W 009°01'2 3.9
2019-Sep-17 09:00N 38°24' W 009°03'2 4.3
2019-Sep-17 08:30N 38°23' W 009°01'1 2.7
2019-Sep-17 08:00N 38°24' W 009°02'1 1.2
2019-Sep-17 07:30N 38°24' W 009°02'1 2.0
2019-Sep-17 07:00N 38°24' W 009°01'2 3.4
2019-Sep-17 06:30N 38°24' W 008°59'0 0.0
2019-Sep-17 06:00N 38°24' W 008°59'0 0.7
2019-Sep-17 05:30N 38°24' W 008°59'1 1.4
2019-Sep-17 05:00N 38°23' W 008°58'2 3.0
2019-Sep-17 04:30N 38°22' W 008°58'2 4.0
2019-Sep-17 04:00N 38°24' W 008°58'1 1.5
2019-Sep-17 03:30N 38°24' W 008°58'1 2.2
2019-Sep-17 03:00N 38°23' W 008°58'1 2.1
2019-Sep-17 02:30N 38°22' W 008°58'1 1.9
2019-Sep-17 02:00N 38°21' W 008°58'1 2.8
2019-Sep-17 01:30N 38°23' W 008°58'1 1.9
2019-Sep-17 01:01N 38°24' W 008°58'1 1.5
2019-Sep-17 00:30N 38°23' W 008°58'1 2.4
2019-Sep-17 00:00N 38°22' W 008°59'2 4.5
2019-Sep-16 23:30N 38°22' W 009°02'1 2.1
2019-Sep-16 23:00N 38°22' W 009°01'2 4.4
2019-Sep-16 22:30N 38°24' W 008°59'2 4.3
2019-Sep-16 22:00N 38°24' W 009°02'1 2.7
2019-Sep-16 21:30N 38°24' W 008°60'1 2.2
2019-Sep-16 21:00N 38°23' W 008°59'2 3.3
2019-Sep-16 20:31N 38°23' W 009°01'2 3.6
2019-Sep-16 20:00N 38°24' W 008°59'0 0.4
2019-Sep-16 19:30N 38°24' W 008°59'0 0.8
2019-Sep-16 19:00N 38°23' W 008°59'0 0.3
2019-Sep-16 18:31N 38°23' W 008°59'1 0.3
2019-Sep-16 15:58N 38°23' W 009°00'0 0.3
2019-Sep-16 15:31N 38°23' W 009°00'0 0.4
2019-Sep-16 15:01N 38°23' W 009°00'0 0.5
2019-Sep-16 14:30N 38°22' W 009°00'0 0.3
2019-Sep-16 14:00N 38°22' W 009°00'0 0.3
2019-Sep-16 13:31N 38°22' W 009°00'0 0.1
2019-Sep-16 13:01N 38°22' W 009°00'0 0.4
2019-Sep-16 12:31N 38°22' W 009°00'0 0.6
2019-Sep-16 12:01N 38°23' W 009°00'0 0.1
2019-Sep-16 11:30N 38°23' W 009°00'1 1.4
2019-Sep-16 11:01N 38°23' W 009°00'0 0.2
2019-Sep-16 10:30N 38°23' W 009°00'1 1.1
2019-Sep-16 10:01N 38°24' W 009°01'0 0.3
2019-Sep-16 09:31N 38°24' W 009°01'0 0.3
2019-Sep-16 09:01N 38°24' W 009°01'0 0.3
2019-Sep-16 08:31N 38°24' W 009°01'0 0.4
2019-Sep-16 08:01N 38°24' W 009°01'0 0.3
2019-Sep-16 07:30N 38°24' W 009°02'0 0.2
2019-Sep-16 07:01N 38°24' W 009°02'1 2.1
2019-Sep-16 06:31N 38°23' W 009°00'1 2.7
2019-Sep-16 06:00N 38°22' W 008°60'0 0.3
2019-Sep-16 05:30N 38°22' W 008°60'0 0.5
2019-Sep-16 05:01N 38°22' W 009°00'1 1.0
2019-Sep-16 04:31N 38°22' W 009°00'0 0.4
2019-Sep-16 04:01N 38°22' W 009°01'0 0.6
2019-Sep-16 03:31N 38°22' W 009°01'0 0.1
2019-Sep-16 03:00N 38°22' W 009°01'1 1.4
2019-Sep-16 02:30N 38°22' W 009°01'0 0.4
2019-Sep-16 02:01N 38°22' W 009°01'0 0.6
2019-Sep-16 01:30N 38°23' W 009°01'0 0.4
2019-Sep-16 01:01N 38°23' W 009°02'0 0.5
2019-Sep-16 00:31N 38°23' W 009°02'0 0.8
2019-Sep-16 00:01N 38°23' W 009°02'0 0.3
2019-Sep-15 23:30N 38°23' W 009°02'2 3.2
2019-Sep-15 23:01N 38°22' W 009°02'1 1.5
2019-Sep-15 22:31N 38°22' W 009°01'0 0.6
2019-Sep-15 22:00N 38°23' W 009°01'0 0.6
2019-Sep-15 21:31N 38°23' W 009°01'1 1.5
2019-Sep-15 21:01N 38°23' W 009°02'0 0.8
2019-Sep-15 20:31N 38°24' W 009°02'0 0.6
2019-Sep-15 20:01N 38°24' W 009°03'1 1.3
2019-Sep-15 19:31N 38°25' W 009°03'1 2.2
2019-Sep-15 19:00N 38°24' W 009°02'1 2.1
2019-Sep-15 18:31N 38°23' W 009°01'1 1.7
2019-Sep-15 18:01N 38°23' W 009°00'0 0.5
2019-Sep-15 17:31N 38°23' W 008°60'1 1.3
2019-Sep-15 17:01N 38°23' W 008°60'0 0.6
2019-Sep-15 16:31N 38°23' W 008°60'0 0.4
2019-Sep-15 16:01N 38°23' W 009°00'0 0.3
2019-Sep-15 15:31N 38°23' W 009°00'0 0.3
2019-Sep-15 15:00N 38°23' W 009°00'0 0.2
2019-Sep-15 14:31N 38°23' W 009°01'1 1.3
2019-Sep-15 14:00N 38°22' W 008°60'0 0.4
2019-Sep-15 13:31N 38°23' W 009°00'0 0.4
2019-Sep-15 13:01N 38°23' W 009°00'0 0.3
2019-Sep-15 12:30N 38°23' W 009°01'1 1.3
2019-Sep-15 12:01N 38°23' W 009°01'0 0.5
2019-Sep-15 11:31N 38°23' W 009°01'0 0.5
2019-Sep-15 11:01N 38°23' W 009°01'0 0.3
2019-Sep-15 10:30N 38°23' W 009°01'0 0.2
2019-Sep-15 10:01N 38°23' W 009°01'0 0.0
2019-Sep-15 09:30N 38°23' W 009°01'0 0.0
2019-Sep-15 09:01N 38°23' W 009°01'0 0.2
2019-Sep-15 08:30N 38°23' W 009°01'0 0.5
2019-Sep-15 08:01N 38°23' W 009°01'0 0.1
2019-Sep-15 07:31N 38°23' W 009°01'0 0.4
2019-Sep-15 07:01N 38°23' W 009°01'0 0.2
2019-Sep-15 06:31N 38°23' W 009°01'1 0.1
2019-Sep-14 18:57N 38°24' W 009°02'0 1.1
2019-Sep-14 18:31N 38°23' W 009°02'0 0.8
2019-Sep-14 18:01N 38°24' W 009°02'0 0.9
2019-Sep-14 17:31N 38°24' W 009°02'1 1.3
2019-Sep-14 17:01N 38°24' W 009°01'1 3.0
2019-Sep-14 16:31N 38°23' W 008°60'1 1.6
2019-Sep-14 16:01N 38°23' W 009°01'0 0.7
2019-Sep-14 15:31N 38°24' W 009°00'0 0.6
2019-Sep-14 15:01N 38°24' W 009°00'0 0.9
2019-Sep-14 14:31N 38°24' W 008°60'0 0.7
2019-Sep-14 14:01N 38°24' W 009°00'0 0.6
2019-Sep-14 13:31N 38°24' W 009°00'0 0.6
2019-Sep-14 13:01N 38°24' W 009°01'0 0.4
2019-Sep-14 12:31N 38°23' W 009°01'0 0.9
2019-Sep-14 12:00N 38°23' W 009°02'0 0.1
2019-Sep-14 11:31N 38°23' W 009°01'0 0.4
2019-Sep-14 11:01N 38°23' W 009°01'0 0.6
2019-Sep-14 10:31N 38°24' W 009°01'0 0.9
2019-Sep-14 10:01N 38°24' W 009°01'0 0.9
2019-Sep-14 09:31N 38°24' W 009°01'0 0.1
2019-Sep-14 09:01N 38°24' W 009°01'0 0.0
2019-Sep-14 08:31N 38°24' W 009°01'0 0.0
2019-Sep-14 08:01N 38°24' W 009°01'0 0.8
2019-Sep-14 07:31N 38°23' W 009°02'1 1.1
2019-Sep-14 07:01N 38°24' W 009°01'0 0.6
2019-Sep-14 06:31N 38°24' W 009°01'1 1.2
2019-Sep-14 06:00N 38°23' W 009°01'2 4.6
2019-Sep-14 05:30N 38°23' W 009°04'0 0.6
2019-Sep-14 05:00N 38°23' W 009°04'0 0.9
2019-Sep-14 04:30N 38°23' W 009°04'2 3.5
2019-Sep-14 04:00N 38°23' W 009°07'2 3.5
2019-Sep-14 03:30N 38°23' W 009°09'1 2.7
2019-Sep-14 03:00N 38°23' W 009°11'2 3.3
2019-Sep-14 02:30N 38°23' W 009°13'2 3.1
2019-Sep-14 02:00N 38°23' W 009°15'2 3.7
2019-Sep-14 01:30N 38°25' W 009°16'2 4.1
2019-Sep-14 01:00N 38°27' W 009°17'2 4.1
2019-Sep-14 00:30N 38°29' W 009°18'2 3.9
2019-Sep-14 00:00N 38°30' W 009°19'2 4.0
2019-Sep-13 23:31N 38°32' W 009°20'3 5.1
2019-Sep-13 23:00N 38°35' W 009°21'3 5.8
2019-Sep-13 22:30N 38°38' W 009°21'4 7.9
2019-Sep-13 22:00N 38°41' W 009°18'4 7.8
2019-Sep-13 21:30N 38°41' W 009°13'4 7.8
2019-Sep-13 21:00N 38°42' W 009°08'2 3.2
2019-Sep-13 20:29N 38°40' W 009°09'0 0.0
2019-Sep-13 19:59N 38°40' W 009°09'0 0.0
2019-Sep-13 19:29N 38°40' W 009°09'0 0.0
2019-Sep-13 18:59N 38°40' W 009°09'0 0.0
2019-Sep-13 18:29N 38°40' W 009°09'0 0.0
2019-Sep-13 17:59N 38°40' W 009°09'0 0.0
2019-Sep-13 17:29N 38°40' W 009°09'0 0.0
2019-Sep-13 16:59N 38°40' W 009°09'0 0.0
2019-Sep-13 16:29N 38°40' W 009°09'0 0.0
2019-Sep-13 15:59N 38°40' W 009°09'0 0.0
2019-Sep-12 10:42N 38°40' W 009°09'0 0.0
2019-Sep-10 10:05N 38°40' W 009°09'0 0.0
2019-Sep-10 09:59N 38°40' W 009°09'0 0.0
2019-Sep-10 09:29N 38°40' W 009°09'0 0.1
2019-Sep-10 09:01N 38°40' W 009°09'1 1.4
2019-Sep-10 08:30N 38°41' W 009°08'2 4.1
2019-Sep-10 08:00N 38°41' W 009°11'4 7.9
2019-Sep-10 07:30N 38°41' W 009°16'4 7.3
2019-Sep-10 07:01N 38°39' W 009°20'3 6.7
2019-Sep-10 06:30N 38°37' W 009°23'4 7.6
2019-Sep-10 06:00N 38°38' W 009°28'4 7.5
2019-Sep-10 05:30N 38°39' W 009°33'4 7.8
2019-Sep-10 05:00N 38°43' W 009°33'4 8.5
2019-Sep-10 04:30N 38°47' W 009°34'4 8.5
2019-Sep-10 04:01N 38°51' W 009°33'4 8.4
2019-Sep-10 03:30N 38°55' W 009°32'4 8.3
2019-Sep-10 03:00N 38°59' W 009°32'4 7.9
2019-Sep-10 02:30N 39°03' W 009°31'4 7.9
2019-Sep-10 02:00N 39°07' W 009°31'4 7.7
2019-Sep-10 01:30N 39°11' W 009°30'4 7.7
2019-Sep-10 01:00N 39°15' W 009°30'4 7.8
2019-Sep-10 00:30N 39°19' W 009°29'5 8.3
2019-Sep-09 23:52N 39°24' W 009°28'4 8.3
2019-Sep-09 23:22N 39°28' W 009°25'8 8.2
2019-Sep-09 22:25N 39°35' W 009°22'5 8.1
2019-Sep-09 21:51N 39°39' W 009°21'3 7.8
2019-Sep-09 21:27N 39°43' W 009°20'4 8.1
2019-Sep-09 20:55N 39°47' W 009°19'5 8.1
2019-Sep-09 20:21N 39°51' W 009°18'6 8.1
2019-Sep-09 19:39N 39°57' W 009°16'3 8.2
2019-Sep-09 19:17N 39°60' W 009°15'27 7.4
2019-Sep-09 15:42N 40°26' W 009°16'45 7.9
2019-Sep-09 10:00N 41°09' W 009°35'28 3.4
2019-Sep-09 01:48N 41°10' W 008°58'6 2.5
2019-Sep-08 23:26N 41°09' W 008°50'1 1.4
2019-Sep-08 22:32N 41°10' W 008°50'  
Track history (hours):
 
Tides and Currents Weather Stations Pressure Air Temp Water Temp Dewpoint Dewpoint Depression Visibility Wind Speed Wind Dir Waves Ship Positions

Oceanographic research ship Almirante Gago Coutinho (Portugal)

Detailed information on ship capabilities available from University of Delaware's Ocean Information Center.

Last reported at 2019-Sep-18 11:30 UTC. Time now 2019-Sep-18 11:55 UTC.
Position N 38°23' W 009°01'.

Length 69 m; draft 5 m.

Type: Military. MMSI: 263145000.

Date/timePositionNaut miles runAvg speedWind from/ knotsBaromVisibWave heightAir tempDewpointWater temp
2019-Sep-18 11:30N 38°23' W 009°01'2 4.2
2019-Sep-18 11:01N 38°24' W 009°03'2 3.9
2019-Sep-18 10:30N 38°25' W 009°05'1 2.1
2019-Sep-18 10:00N 38°26' W 009°06'0 0.2
2019-Sep-18 09:31N 38°26' W 009°06'0 0.1
2019-Sep-18 09:00N 38°26' W 009°06'1 2.5
2019-Sep-18 08:31N 38°25' W 009°05'0 0.8
2019-Sep-18 08:00N 38°25' W 009°04'1 2.6
2019-Sep-18 07:30N 38°24' W 009°03'2 3.7
2019-Sep-18 07:00N 38°24' W 009°00'0 0.5
2019-Sep-18 06:30N 38°24' W 009°01'0 0.2
2019-Sep-18 06:00N 38°24' W 009°00'0 0.5
2019-Sep-18 05:30N 38°24' W 009°00'0 0.5
2019-Sep-18 05:00N 38°24' W 009°00'0 0.5
2019-Sep-18 04:30N 38°24' W 009°00'0 0.2
2019-Sep-18 04:00N 38°23' W 009°00'1 1.6
2019-Sep-18 03:30N 38°24' W 009°00'1 1.1
2019-Sep-18 03:00N 38°25' W 009°00'0 0.3
2019-Sep-18 02:30N 38°25' W 009°00'1 2.3
2019-Sep-18 02:00N 38°24' W 009°00'1 2.9
2019-Sep-18 01:30N 38°22' W 009°00'0 0.4
2019-Sep-18 01:00N 38°22' W 009°00'0 0.4
2019-Sep-18 00:30N 38°22' W 009°00'0 0.3
2019-Sep-18 00:00N 38°23' W 009°00'1 1.0
2019-Sep-17 23:30N 38°22' W 009°00'2 3.1
2019-Sep-17 23:00N 38°21' W 009°00'3 5.4
2019-Sep-17 22:30N 38°23' W 009°00'0 0.8
2019-Sep-17 22:00N 38°24' W 009°01'0 0.2
2019-Sep-17 21:30N 38°24' W 009°00'1 1.6
2019-Sep-17 21:00N 38°23' W 008°60'0 0.2
2019-Sep-17 20:30N 38°23' W 008°60'0 0.7
2019-Sep-17 20:00N 38°23' W 009°00'1 2.3
2019-Sep-17 19:30N 38°22' W 008°60'1 2.9
2019-Sep-17 19:00N 38°21' W 009°00'2 3.6
2019-Sep-17 18:30N 38°20' W 009°03'0 0.9
2019-Sep-17 18:00N 38°20' W 009°03'0 0.5
2019-Sep-17 17:30N 38°20' W 009°03'0 0.6
2019-Sep-17 17:00N 38°20' W 009°04'0 0.6
2019-Sep-17 16:30N 38°20' W 009°04'0 0.7
2019-Sep-17 16:00N 38°20' W 009°05'1 1.1
2019-Sep-17 15:30N 38°20' W 009°04'2 3.7
2019-Sep-17 15:00N 38°22' W 009°03'1 2.4
2019-Sep-17 14:30N 38°23' W 009°02'1 1.7
2019-Sep-17 14:00N 38°23' W 009°01'0 0.5
2019-Sep-17 13:30N 38°23' W 009°01'1 1.1
2019-Sep-17 13:00N 38°23' W 009°02'0 0.2
2019-Sep-17 12:30N 38°23' W 009°02'0 0.4
2019-Sep-17 12:00N 38°23' W 009°02'1 2.5
2019-Sep-17 11:30N 38°24' W 009°02'2 4.2
2019-Sep-17 11:00N 38°22' W 009°01'1 2.7
2019-Sep-17 10:30N 38°24' W 009°02'0 0.2
2019-Sep-17 10:00N 38°23' W 009°02'1 1.6
2019-Sep-17 09:30N 38°23' W 009°01'2 3.9
2019-Sep-17 09:00N 38°24' W 009°03'2 4.3
2019-Sep-17 08:30N 38°23' W 009°01'1 2.7
2019-Sep-17 08:00N 38°24' W 009°02'1 1.2
2019-Sep-17 07:30N 38°24' W 009°02'1 2.0
2019-Sep-17 07:00N 38°24' W 009°01'2 3.4
2019-Sep-17 06:30N 38°24' W 008°59'0 0.0
2019-Sep-17 06:00N 38°24' W 008°59'0 0.7
2019-Sep-17 05:30N 38°24' W 008°59'1 1.4
2019-Sep-17 05:00N 38°23' W 008°58'2 3.0
2019-Sep-17 04:30N 38°22' W 008°58'2 4.0
2019-Sep-17 04:00N 38°24' W 008°58'1 1.5
2019-Sep-17 03:30N 38°24' W 008°58'1 2.2
2019-Sep-17 03:00N 38°23' W 008°58'1 2.1
2019-Sep-17 02:30N 38°22' W 008°58'1 1.9
2019-Sep-17 02:00N 38°21' W 008°58'1 2.8
2019-Sep-17 01:30N 38°23' W 008°58'1 1.9
2019-Sep-17 01:01N 38°24' W 008°58'1 1.5
2019-Sep-17 00:30N 38°23' W 008°58'1 2.4
2019-Sep-17 00:00N 38°22' W 008°59'2 4.5
2019-Sep-16 23:30N 38°22' W 009°02'1 2.1
2019-Sep-16 23:00N 38°22' W 009°01'2 4.4
2019-Sep-16 22:30N 38°24' W 008°59'2 4.3
2019-Sep-16 22:00N 38°24' W 009°02'1 2.7
2019-Sep-16 21:30N 38°24' W 008°60'1 2.2
2019-Sep-16 21:00N 38°23' W 008°59'2 3.3
2019-Sep-16 20:31N 38°23' W 009°01'2 3.6
2019-Sep-16 20:00N 38°24' W 008°59'0 0.4
2019-Sep-16 19:30N 38°24' W 008°59'0 0.8
2019-Sep-16 19:00N 38°23' W 008°59'0 0.3
2019-Sep-16 18:31N 38°23' W 008°59'1 0.3
2019-Sep-16 15:58N 38°23' W 009°00'0 0.3
2019-Sep-16 15:31N 38°23' W 009°00'0 0.4
2019-Sep-16 15:01N 38°23' W 009°00'0 0.5
2019-Sep-16 14:30N 38°22' W 009°00'0 0.3
2019-Sep-16 14:00N 38°22' W 009°00'0 0.3
2019-Sep-16 13:31N 38°22' W 009°00'0 0.1
2019-Sep-16 13:01N 38°22' W 009°00'0 0.4
2019-Sep-16 12:31N 38°22' W 009°00'0 0.6
2019-Sep-16 12:01N 38°23' W 009°00'0 0.1
2019-Sep-16 11:30N 38°23' W 009°00'1 1.4
2019-Sep-16 11:01N 38°23' W 009°00'0 0.2
2019-Sep-16 10:30N 38°23' W 009°00'1 1.1
2019-Sep-16 10:01N 38°24' W 009°01'0 0.3
2019-Sep-16 09:31N 38°24' W 009°01'0 0.3
2019-Sep-16 09:01N 38°24' W 009°01'0 0.3
2019-Sep-16 08:31N 38°24' W 009°01'0 0.4
2019-Sep-16 08:01N 38°24' W 009°01'0 0.3
2019-Sep-16 07:30N 38°24' W 009°02'0 0.2
2019-Sep-16 07:01N 38°24' W 009°02'1 2.1
2019-Sep-16 06:31N 38°23' W 009°00'1 2.7
2019-Sep-16 06:00N 38°22' W 008°60'0 0.3
2019-Sep-16 05:30N 38°22' W 008°60'0 0.5
2019-Sep-16 05:01N 38°22' W 009°00'1 1.0
2019-Sep-16 04:31N 38°22' W 009°00'0 0.4
2019-Sep-16 04:01N 38°22' W 009°01'0 0.6
2019-Sep-16 03:31N 38°22' W 009°01'0 0.1
2019-Sep-16 03:00N 38°22' W 009°01'1 1.4
2019-Sep-16 02:30N 38°22' W 009°01'0 0.4
2019-Sep-16 02:01N 38°22' W 009°01'0 0.6
2019-Sep-16 01:30N 38°23' W 009°01'0 0.4
2019-Sep-16 01:01N 38°23' W 009°02'0 0.5
2019-Sep-16 00:31N 38°23' W 009°02'0 0.8
2019-Sep-16 00:01N 38°23' W 009°02'0 0.3
2019-Sep-15 23:30N 38°23' W 009°02'2 3.2
2019-Sep-15 23:01N 38°22' W 009°02'1 1.5
2019-Sep-15 22:31N 38°22' W 009°01'0 0.6
2019-Sep-15 22:00N 38°23' W 009°01'0 0.6
2019-Sep-15 21:31N 38°23' W 009°01'1 1.5
2019-Sep-15 21:01N 38°23' W 009°02'0 0.8
2019-Sep-15 20:31N 38°24' W 009°02'0 0.6
2019-Sep-15 20:01N 38°24' W 009°03'1 1.3
2019-Sep-15 19:31N 38°25' W 009°03'1 2.2
2019-Sep-15 19:00N 38°24' W 009°02'1 2.1
2019-Sep-15 18:31N 38°23' W 009°01'1 1.7
2019-Sep-15 18:01N 38°23' W 009°00'0 0.5
2019-Sep-15 17:31N 38°23' W 008°60'1 1.3
2019-Sep-15 17:01N 38°23' W 008°60'0 0.6
2019-Sep-15 16:31N 38°23' W 008°60'0 0.4
2019-Sep-15 16:01N 38°23' W 009°00'0 0.3
2019-Sep-15 15:31N 38°23' W 009°00'0 0.3
2019-Sep-15 15:00N 38°23' W 009°00'0 0.2
2019-Sep-15 14:31N 38°23' W 009°01'1 1.3
2019-Sep-15 14:00N 38°22' W 008°60'0 0.4
2019-Sep-15 13:31N 38°23' W 009°00'0 0.4
2019-Sep-15 13:01N 38°23' W 009°00'0 0.3
2019-Sep-15 12:30N 38°23' W 009°01'1 1.3
2019-Sep-15 12:01N 38°23' W 009°01'0 0.5
2019-Sep-15 11:31N 38°23' W 009°01'0 0.5
2019-Sep-15 11:01N 38°23' W 009°01'0 0.3
2019-Sep-15 10:30N 38°23' W 009°01'0 0.2
2019-Sep-15 10:01N 38°23' W 009°01'0 0.0
2019-Sep-15 09:30N 38°23' W 009°01'0 0.0
2019-Sep-15 09:01N 38°23' W 009°01'0 0.2
2019-Sep-15 08:30N 38°23' W 009°01'0 0.5
2019-Sep-15 08:01N 38°23' W 009°01'0 0.1
2019-Sep-15 07:31N 38°23' W 009°01'0 0.4
2019-Sep-15 07:01N 38°23' W 009°01'0 0.2
2019-Sep-15 06:31N 38°23' W 009°01'1 0.1
2019-Sep-14 18:57N 38°24' W 009°02'0 1.1
2019-Sep-14 18:31N 38°23' W 009°02'0 0.8
2019-Sep-14 18:01N 38°24' W 009°02'0 0.9
2019-Sep-14 17:31N 38°24' W 009°02'1 1.3
2019-Sep-14 17:01N 38°24' W 009°01'1 3.0
2019-Sep-14 16:31N 38°23' W 008°60'1 1.6
2019-Sep-14 16:01N 38°23' W 009°01'0 0.7
2019-Sep-14 15:31N 38°24' W 009°00'0 0.6
2019-Sep-14 15:01N 38°24' W 009°00'0 0.9
2019-Sep-14 14:31N 38°24' W 008°60'0 0.7
2019-Sep-14 14:01N 38°24' W 009°00'0 0.6
2019-Sep-14 13:31N 38°24' W 009°00'0 0.6
2019-Sep-14 13:01N 38°24' W 009°01'0 0.4
2019-Sep-14 12:31N 38°23' W 009°01'0 0.9
2019-Sep-14 12:00N 38°23' W 009°02'0 0.1
2019-Sep-14 11:31N 38°23' W 009°01'0 0.4
2019-Sep-14 11:01N 38°23' W 009°01'0 0.6
2019-Sep-14 10:31N 38°24' W 009°01'0 0.9
2019-Sep-14 10:01N 38°24' W 009°01'0 0.9
2019-Sep-14 09:31N 38°24' W 009°01'0 0.1
2019-Sep-14 09:01N 38°24' W 009°01'0 0.0
2019-Sep-14 08:31N 38°24' W 009°01'0 0.0
2019-Sep-14 08:01N 38°24' W 009°01'0 0.8
2019-Sep-14 07:31N 38°23' W 009°02'1 1.1
2019-Sep-14 07:01N 38°24' W 009°01'0 0.6
2019-Sep-14 06:31N 38°24' W 009°01'1 1.2
2019-Sep-14 06:00N 38°23' W 009°01'2 4.6
2019-Sep-14 05:30N 38°23' W 009°04'0 0.6
2019-Sep-14 05:00N 38°23' W 009°04'0 0.9
2019-Sep-14 04:30N 38°23' W 009°04'2 3.5
2019-Sep-14 04:00N 38°23' W 009°07'2 3.5
2019-Sep-14 03:30N 38°23' W 009°09'1 2.7
2019-Sep-14 03:00N 38°23' W 009°11'2 3.3
2019-Sep-14 02:30N 38°23' W 009°13'2 3.1
2019-Sep-14 02:00N 38°23' W 009°15'2 3.7
2019-Sep-14 01:30N 38°25' W 009°16'2 4.1
2019-Sep-14 01:00N 38°27' W 009°17'2 4.1
2019-Sep-14 00:30N 38°29' W 009°18'2 3.9
2019-Sep-14 00:00N 38°30' W 009°19'2 4.0
2019-Sep-13 23:31N 38°32' W 009°20'3 5.1
2019-Sep-13 23:00N 38°35' W 009°21'3 5.8
2019-Sep-13 22:30N 38°38' W 009°21'4 7.9
2019-Sep-13 22:00N 38°41' W 009°18'4 7.8
2019-Sep-13 21:30N 38°41' W 009°13'4 7.8
2019-Sep-13 21:00N 38°42' W 009°08'2 3.2
2019-Sep-13 20:29N 38°40' W 009°09'0 0.0
2019-Sep-13 19:59N 38°40' W 009°09'0 0.0
2019-Sep-13 19:29N 38°40' W 009°09'0 0.0
2019-Sep-13 18:59N 38°40' W 009°09'0 0.0
2019-Sep-13 18:29N 38°40' W 009°09'0 0.0
2019-Sep-13 17:59N 38°40' W 009°09'0 0.0
2019-Sep-13 17:29N 38°40' W 009°09'0 0.0
2019-Sep-13 16:59N 38°40' W 009°09'0 0.0
2019-Sep-13 16:29N 38°40' W 009°09'0 0.0
2019-Sep-13 15:59N 38°40' W 009°09'0 0.0
2019-Sep-12 10:42N 38°40' W 009°09'0 0.0
2019-Sep-10 10:05N 38°40' W 009°09'0 0.0
2019-Sep-10 09:59N 38°40' W 009°09'0 0.0
2019-Sep-10 09:29N 38°40' W 009°09'0 0.1
2019-Sep-10 09:01N 38°40' W 009°09'1 1.4
2019-Sep-10 08:30N 38°41' W 009°08'2 4.1
2019-Sep-10 08:00N 38°41' W 009°11'4 7.9
2019-Sep-10 07:30N 38°41' W 009°16'4 7.3
2019-Sep-10 07:01N 38°39' W 009°20'3 6.7
2019-Sep-10 06:30N 38°37' W 009°23'4 7.6
2019-Sep-10 06:00N 38°38' W 009°28'4 7.5
2019-Sep-10 05:30N 38°39' W 009°33'4 7.8
2019-Sep-10 05:00N 38°43' W 009°33'4 8.5
2019-Sep-10 04:30N 38°47' W 009°34'4 8.5
2019-Sep-10 04:01N 38°51' W 009°33'4 8.4
2019-Sep-10 03:30N 38°55' W 009°32'4 8.3
2019-Sep-10 03:00N 38°59' W 009°32'4 7.9
2019-Sep-10 02:30N 39°03' W 009°31'4 7.9
2019-Sep-10 02:00N 39°07' W 009°31'4 7.7
2019-Sep-10 01:30N 39°11' W 009°30'4 7.7
2019-Sep-10 01:00N 39°15' W 009°30'4 7.8
2019-Sep-10 00:30N 39°19' W 009°29'5 8.3
2019-Sep-09 23:52N 39°24' W 009°28'4 8.3
2019-Sep-09 23:22N 39°28' W 009°25'8 8.2
2019-Sep-09 22:25N 39°35' W 009°22'5 8.1
2019-Sep-09 21:51N 39°39' W 009°21'3 7.8
2019-Sep-09 21:27N 39°43' W 009°20'4 8.1
2019-Sep-09 20:55N 39°47' W 009°19'5 8.1
2019-Sep-09 20:21N 39°51' W 009°18'6 8.1
2019-Sep-09 19:39N 39°57' W 009°16'3 8.2
2019-Sep-09 19:17N 39°60' W 009°15'27 7.4
2019-Sep-09 15:42N 40°26' W 009°16'45 7.9
2019-Sep-09 10:00N 41°09' W 009°35'28 3.4
2019-Sep-09 01:48N 41°10' W 008°58'6 2.5
2019-Sep-08 23:26N 41°09' W 008°50'1 1.4
2019-Sep-08 22:32N 41°10' W 008°50'  

Dump ship's entire track history